sensor_id;sensor_type;location;lat;lon;timestamp;P1;durP1;ratioP1;P2;durP2;ratioP2
23826;SDS011;12094;50.822;4.376;2022-08-19T00:02:16;35.38;;;29.15;;
23826;SDS011;12094;50.822;4.376;2022-08-19T00:04:43;35.47;;;29.17;;
23826;SDS011;12094;50.822;4.376;2022-08-19T00:07:13;34.15;;;29.02;;
23826;SDS011;12094;50.822;4.376;2022-08-19T00:09:40;38.83;;;31.08;;
23826;SDS011;12094;50.822;4.376;2022-08-19T00:12:07;39.97;;;32.13;;
23826;SDS011;12094;50.822;4.376;2022-08-19T00:14:35;37.53;;;30.77;;
23826;SDS011;12094;50.822;4.376;2022-08-19T00:17:03;46.22;;;35.17;;
23826;SDS011;12094;50.822;4.376;2022-08-19T00:19:31;52.65;;;37.63;;
23826;SDS011;12094;50.822;4.376;2022-08-19T00:21:58;52.70;;;37.63;;
23826;SDS011;12094;50.822;4.376;2022-08-19T00:24:25;57.40;;;40.65;;
23826;SDS011;12094;50.822;4.376;2022-08-19T00:26:53;59.20;;;42.28;;
23826;SDS011;12094;50.822;4.376;2022-08-19T00:29:22;56.17;;;40.13;;
23826;SDS011;12094;50.822;4.376;2022-08-19T00:31:51;72.40;;;47.75;;
23826;SDS011;12094;50.822;4.376;2022-08-19T00:34:26;68.53;;;45.83;;
23826;SDS011;12094;50.822;4.376;2022-08-19T00:36:55;70.30;;;47.42;;
23826;SDS011;12094;50.822;4.376;2022-08-19T00:39:24;64.05;;;46.83;;
23826;SDS011;12094;50.822;4.376;2022-08-19T00:41:51;73.47;;;48.92;;
23826;SDS011;12094;50.822;4.376;2022-08-19T00:44:20;78.78;;;52.60;;
23826;SDS011;12094;50.822;4.376;2022-08-19T00:46:53;74.70;;;48.38;;
23826;SDS011;12094;50.822;4.376;2022-08-19T00:52:43;76.63;;;50.38;;
23826;SDS011;12094;50.822;4.376;2022-08-19T00:55:14;72.95;;;51.53;;
23826;SDS011;12094;50.822;4.376;2022-08-19T00:57:51;77.53;;;52.15;;
23826;SDS011;12094;50.822;4.376;2022-08-19T01:00:22;87.68;;;56.05;;
23826;SDS011;12094;50.822;4.376;2022-08-19T01:02:51;79.57;;;54.05;;
23826;SDS011;12094;50.822;4.376;2022-08-19T01:05:21;78.40;;;55.83;;
23826;SDS011;12094;50.822;4.376;2022-08-19T01:08:08;81.45;;;53.47;;
23826;SDS011;12094;50.822;4.376;2022-08-19T01:10:40;80.75;;;53.42;;
23826;SDS011;12094;50.822;4.376;2022-08-19T01:13:25;74.68;;;51.30;;
23826;SDS011;12094;50.822;4.376;2022-08-19T01:16:18;78.55;;;51.60;;
23826;SDS011;12094;50.822;4.376;2022-08-19T01:18:49;72.85;;;49.53;;
23826;SDS011;12094;50.822;4.376;2022-08-19T01:21:34;73.55;;;49.15;;
23826;SDS011;12094;50.822;4.376;2022-08-19T01:24:07;68.90;;;47.67;;
23826;SDS011;12094;50.822;4.376;2022-08-19T01:26:38;63.15;;;45.92;;
23826;SDS011;12094;50.822;4.376;2022-08-19T01:29:12;63.13;;;44.15;;
23826;SDS011;12094;50.822;4.376;2022-08-19T01:31:41;60.03;;;43.28;;
23826;SDS011;12094;50.822;4.376;2022-08-19T01:34:11;61.80;;;43.45;;
23826;SDS011;12094;50.822;4.376;2022-08-19T01:36:41;63.13;;;42.45;;
23826;SDS011;12094;50.822;4.376;2022-08-19T01:39:14;57.95;;;42.83;;
23826;SDS011;12094;50.822;4.376;2022-08-19T01:41:48;59.80;;;42.33;;
23826;SDS011;12094;50.822;4.376;2022-08-19T01:44:17;55.80;;;41.40;;
23826;SDS011;12094;50.822;4.376;2022-08-19T01:46:47;51.22;;;40.45;;
23826;SDS011;12094;50.822;4.376;2022-08-19T01:49:21;50.10;;;37.22;;
23826;SDS011;12094;50.822;4.376;2022-08-19T01:51:50;54.80;;;39.15;;
23826;SDS011;12094;50.822;4.376;2022-08-19T01:54:18;49.60;;;36.17;;
23826;SDS011;12094;50.822;4.376;2022-08-19T01:57:04;49.53;;;36.75;;
23826;SDS011;12094;50.822;4.376;2022-08-19T01:59:37;49.37;;;36.53;;
23826;SDS011;12094;50.822;4.376;2022-08-19T02:02:06;45.05;;;35.33;;
23826;SDS011;12094;50.822;4.376;2022-08-19T02:04:35;44.65;;;35.00;;
23826;SDS011;12094;50.822;4.376;2022-08-19T02:07:04;39.85;;;32.35;;
23826;SDS011;12094;50.822;4.376;2022-08-19T02:09:32;46.25;;;31.45;;
23826;SDS011;12094;50.822;4.376;2022-08-19T02:12:00;38.88;;;30.10;;
23826;SDS011;12094;50.822;4.376;2022-08-19T02:14:27;35.95;;;27.35;;
23826;SDS011;12094;50.822;4.376;2022-08-19T02:16:54;38.30;;;28.48;;
23826;SDS011;12094;50.822;4.376;2022-08-19T02:19:22;38.15;;;29.20;;
23826;SDS011;12094;50.822;4.376;2022-08-19T02:21:49;41.53;;;31.95;;
23826;SDS011;12094;50.822;4.376;2022-08-19T02:24:18;42.35;;;34.00;;
23826;SDS011;12094;50.822;4.376;2022-08-19T02:26:46;48.95;;;35.00;;
23826;SDS011;12094;50.822;4.376;2022-08-19T02:29:14;47.28;;;35.28;;
23826;SDS011;12094;50.822;4.376;2022-08-19T02:31:42;49.92;;;34.72;;
23826;SDS011;12094;50.822;4.376;2022-08-19T02:34:09;43.47;;;33.03;;
23826;SDS011;12094;50.822;4.376;2022-08-19T02:36:37;46.28;;;31.63;;
23826;SDS011;12094;50.822;4.376;2022-08-19T02:39:08;42.40;;;31.38;;
23826;SDS011;12094;50.822;4.376;2022-08-19T02:41:36;43.58;;;31.27;;
23826;SDS011;12094;50.822;4.376;2022-08-19T02:44:03;43.47;;;29.90;;
23826;SDS011;12094;50.822;4.376;2022-08-19T02:46:50;41.60;;;29.98;;
23826;SDS011;12094;50.822;4.376;2022-08-19T02:49:18;43.22;;;31.58;;
23826;SDS011;12094;50.822;4.376;2022-08-19T02:51:47;39.90;;;29.40;;
23826;SDS011;12094;50.822;4.376;2022-08-19T02:54:15;45.63;;;31.85;;
23826;SDS011;12094;50.822;4.376;2022-08-19T02:56:43;39.47;;;30.63;;
23826;SDS011;12094;50.822;4.376;2022-08-19T02:59:13;44.80;;;31.50;;
23826;SDS011;12094;50.822;4.376;2022-08-19T03:01:41;42.35;;;31.27;;
23826;SDS011;12094;50.822;4.376;2022-08-19T03:04:11;38.53;;;27.92;;
23826;SDS011;12094;50.822;4.376;2022-08-19T03:06:43;38.13;;;27.80;;
23826;SDS011;12094;50.822;4.376;2022-08-19T03:09:13;40.63;;;27.00;;
23826;SDS011;12094;50.822;4.376;2022-08-19T03:11:40;37.47;;;28.48;;
23826;SDS011;12094;50.822;4.376;2022-08-19T03:14:08;45.08;;;29.90;;
23826;SDS011;12094;50.822;4.376;2022-08-19T03:16:50;44.13;;;29.25;;
23826;SDS011;12094;50.822;4.376;2022-08-19T03:21:51;41.78;;;29.60;;
23826;SDS011;12094;50.822;4.376;2022-08-19T03:24:18;43.53;;;29.25;;
23826;SDS011;12094;50.822;4.376;2022-08-19T03:26:48;39.63;;;29.98;;
23826;SDS011;12094;50.822;4.376;2022-08-19T03:29:19;44.30;;;28.60;;
23826;SDS011;12094;50.822;4.376;2022-08-19T03:32:01;45.00;;;29.25;;
23826;SDS011;12094;50.822;4.376;2022-08-19T03:34:53;40.20;;;26.23;;
23826;SDS011;12094;50.822;4.376;2022-08-19T03:37:21;41.20;;;27.67;;
23826;SDS011;12094;50.822;4.376;2022-08-19T03:39:49;42.55;;;28.58;;
23826;SDS011;12094;50.822;4.376;2022-08-19T03:42:17;42.03;;;26.70;;
23826;SDS011;12094;50.822;4.376;2022-08-19T03:45:03;40.25;;;28.83;;
23826;SDS011;12094;50.822;4.376;2022-08-19T03:47:31;47.65;;;29.85;;
23826;SDS011;12094;50.822;4.376;2022-08-19T03:49:59;45.33;;;30.10;;
23826;SDS011;12094;50.822;4.376;2022-08-19T03:52:26;43.88;;;30.05;;
23826;SDS011;12094;50.822;4.376;2022-08-19T03:54:53;42.38;;;29.75;;
23826;SDS011;12094;50.822;4.376;2022-08-19T03:57:23;44.20;;;30.95;;
23826;SDS011;12094;50.822;4.376;2022-08-19T03:59:57;53.30;;;31.40;;
23826;SDS011;12094;50.822;4.376;2022-08-19T04:02:38;45.78;;;30.75;;
23826;SDS011;12094;50.822;4.376;2022-08-19T04:05:05;47.67;;;30.27;;
23826;SDS011;12094;50.822;4.376;2022-08-19T04:07:35;48.90;;;29.83;;
23826;SDS011;12094;50.822;4.376;2022-08-19T04:10:03;47.45;;;31.40;;
23826;SDS011;12094;50.822;4.376;2022-08-19T04:12:30;41.63;;;29.23;;
23826;SDS011;12094;50.822;4.376;2022-08-19T04:15:03;44.75;;;29.98;;
23826;SDS011;12094;50.822;4.376;2022-08-19T04:17:33;48.15;;;29.38;;
23826;SDS011;12094;50.822;4.376;2022-08-19T04:20:01;45.00;;;29.98;;
23826;SDS011;12094;50.822;4.376;2022-08-19T04:22:32;43.83;;;28.45;;
23826;SDS011;12094;50.822;4.376;2022-08-19T04:25:00;44.72;;;27.83;;
23826;SDS011;12094;50.822;4.376;2022-08-19T04:27:27;41.55;;;26.13;;
23826;SDS011;12094;50.822;4.376;2022-08-19T04:29:57;42.55;;;27.42;;
23826;SDS011;12094;50.822;4.376;2022-08-19T04:32:25;42.38;;;27.75;;
23826;SDS011;12094;50.822;4.376;2022-08-19T04:34:54;46.28;;;27.33;;
23826;SDS011;12094;50.822;4.376;2022-08-19T04:37:42;44.80;;;25.98;;
23826;SDS011;12094;50.822;4.376;2022-08-19T04:40:11;36.83;;;25.33;;
23826;SDS011;12094;50.822;4.376;2022-08-19T04:42:57;38.35;;;25.90;;
23826;SDS011;12094;50.822;4.376;2022-08-19T04:45:30;38.30;;;23.10;;
23826;SDS011;12094;50.822;4.376;2022-08-19T04:48:09;44.75;;;23.98;;
23826;SDS011;12094;50.822;4.376;2022-08-19T04:50:54;36.20;;;22.85;;
23826;SDS011;12094;50.822;4.376;2022-08-19T04:53:29;43.30;;;22.30;;
23826;SDS011;12094;50.822;4.376;2022-08-19T04:56:05;42.35;;;22.33;;
23826;SDS011;12094;50.822;4.376;2022-08-19T04:58:38;36.20;;;21.35;;
23826;SDS011;12094;50.822;4.376;2022-08-19T05:01:09;39.85;;;21.70;;
23826;SDS011;12094;50.822;4.376;2022-08-19T05:03:39;37.47;;;23.25;;
23826;SDS011;12094;50.822;4.376;2022-08-19T05:06:11;36.58;;;23.10;;
23826;SDS011;12094;50.822;4.376;2022-08-19T05:08:40;39.78;;;23.88;;
23826;SDS011;12094;50.822;4.376;2022-08-19T05:11:18;41.95;;;22.85;;
23826;SDS011;12094;50.822;4.376;2022-08-19T05:13:55;42.03;;;23.92;;
23826;SDS011;12094;50.822;4.376;2022-08-19T05:16:23;44.53;;;25.48;;
23826;SDS011;12094;50.822;4.376;2022-08-19T05:18:53;42.30;;;25.73;;
23826;SDS011;12094;50.822;4.376;2022-08-19T05:21:40;42.13;;;24.58;;
23826;SDS011;12094;50.822;4.376;2022-08-19T05:24:28;40.25;;;25.35;;
23826;SDS011;12094;50.822;4.376;2022-08-19T05:26:56;45.03;;;27.17;;
23826;SDS011;12094;50.822;4.376;2022-08-19T05:29:25;42.83;;;26.92;;
23826;SDS011;12094;50.822;4.376;2022-08-19T05:32:02;45.50;;;26.77;;
23826;SDS011;12094;50.822;4.376;2022-08-19T05:34:32;48.13;;;28.98;;
23826;SDS011;12094;50.822;4.376;2022-08-19T05:37:01;47.17;;;26.98;;
23826;SDS011;12094;50.822;4.376;2022-08-19T05:39:31;42.20;;;24.80;;
23826;SDS011;12094;50.822;4.376;2022-08-19T05:42:05;41.28;;;24.77;;
23826;SDS011;12094;50.822;4.376;2022-08-19T05:44:37;38.28;;;24.08;;
23826;SDS011;12094;50.822;4.376;2022-08-19T05:47:13;41.65;;;23.95;;
23826;SDS011;12094;50.822;4.376;2022-08-19T05:55:09;29.70;;;19.45;;
23826;SDS011;12094;50.822;4.376;2022-08-19T05:57:39;33.72;;;20.15;;
23826;SDS011;12094;50.822;4.376;2022-08-19T06:00:06;31.13;;;19.77;;
23826;SDS011;12094;50.822;4.376;2022-08-19T06:02:37;32.97;;;19.25;;
23826;SDS011;12094;50.822;4.376;2022-08-19T06:05:05;32.13;;;18.25;;
23826;SDS011;12094;50.822;4.376;2022-08-19T06:07:33;38.72;;;17.92;;
23826;SDS011;12094;50.822;4.376;2022-08-19T06:10:07;30.75;;;16.67;;
23826;SDS011;12094;50.822;4.376;2022-08-19T06:12:39;24.13;;;15.05;;
23826;SDS011;12094;50.822;4.376;2022-08-19T06:15:08;22.10;;;14.43;;
23826;SDS011;12094;50.822;4.376;2022-08-19T06:17:36;27.05;;;15.40;;
23826;SDS011;12094;50.822;4.376;2022-08-19T06:20:09;24.60;;;15.68;;
23826;SDS011;12094;50.822;4.376;2022-08-19T06:22:41;27.13;;;14.88;;
23826;SDS011;12094;50.822;4.376;2022-08-19T06:25:13;23.95;;;14.07;;
23826;SDS011;12094;50.822;4.376;2022-08-19T06:27:41;22.83;;;13.57;;
23826;SDS011;12094;50.822;4.376;2022-08-19T06:30:28;22.92;;;12.55;;
23826;SDS011;12094;50.822;4.376;2022-08-19T06:32:57;20.52;;;12.57;;
23826;SDS011;12094;50.822;4.376;2022-08-19T06:35:24;17.75;;;12.18;;
23826;SDS011;12094;50.822;4.376;2022-08-19T06:37:51;25.65;;;13.27;;
23826;SDS011;12094;50.822;4.376;2022-08-19T06:40:20;21.10;;;11.13;;
23826;SDS011;12094;50.822;4.376;2022-08-19T06:42:49;20.27;;;11.82;;
23826;SDS011;12094;50.822;4.376;2022-08-19T06:45:21;22.73;;;12.38;;
23826;SDS011;12094;50.822;4.376;2022-08-19T06:48:00;21.52;;;11.95;;
23826;SDS011;12094;50.822;4.376;2022-08-19T06:50:27;14.73;;;10.15;;
23826;SDS011;12094;50.822;4.376;2022-08-19T06:52:53;20.98;;;11.27;;
23826;SDS011;12094;50.822;4.376;2022-08-19T06:55:21;18.08;;;11.05;;
23826;SDS011;12094;50.822;4.376;2022-08-19T06:57:49;19.52;;;10.05;;
23826;SDS011;12094;50.822;4.376;2022-08-19T07:00:20;22.35;;;12.73;;
23826;SDS011;12094;50.822;4.376;2022-08-19T07:02:47;21.02;;;11.68;;
23826;SDS011;12094;50.822;4.376;2022-08-19T07:05:24;23.27;;;12.48;;
23826;SDS011;12094;50.822;4.376;2022-08-19T07:07:53;21.77;;;12.07;;
23826;SDS011;12094;50.822;4.376;2022-08-19T07:10:26;21.33;;;12.38;;
23826;SDS011;12094;50.822;4.376;2022-08-19T07:12:54;23.65;;;12.20;;
23826;SDS011;12094;50.822;4.376;2022-08-19T07:15:21;17.67;;;11.35;;
23826;SDS011;12094;50.822;4.376;2022-08-19T07:17:49;24.15;;;12.25;;
23826;SDS011;12094;50.822;4.376;2022-08-19T07:20:18;27.15;;;11.40;;
23826;SDS011;12094;50.822;4.376;2022-08-19T07:22:45;20.70;;;12.40;;
23826;SDS011;12094;50.822;4.376;2022-08-19T07:25:12;21.10;;;11.60;;
23826;SDS011;12094;50.822;4.376;2022-08-19T07:27:39;20.65;;;12.07;;
23826;SDS011;12094;50.822;4.376;2022-08-19T07:30:07;24.75;;;11.63;;
23826;SDS011;12094;50.822;4.376;2022-08-19T07:32:37;23.33;;;11.38;;
23826;SDS011;12094;50.822;4.376;2022-08-19T07:35:05;19.23;;;11.90;;
23826;SDS011;12094;50.822;4.376;2022-08-19T07:37:33;21.10;;;11.68;;
23826;SDS011;12094;50.822;4.376;2022-08-19T07:40:05;17.30;;;10.10;;
23826;SDS011;12094;50.822;4.376;2022-08-19T07:42:35;21.02;;;9.95;;
23826;SDS011;12094;50.822;4.376;2022-08-19T07:45:06;19.23;;;10.70;;
23826;SDS011;12094;50.822;4.376;2022-08-19T07:47:34;15.77;;;9.43;;
23826;SDS011;12094;50.822;4.376;2022-08-19T07:50:16;14.27;;;9.57;;
23826;SDS011;12094;50.822;4.376;2022-08-19T07:52:48;14.68;;;10.07;;
23826;SDS011;12094;50.822;4.376;2022-08-19T07:55:17;20.15;;;9.82;;
23826;SDS011;12094;50.822;4.376;2022-08-19T08:00:40;20.10;;;9.98;;
23826;SDS011;12094;50.822;4.376;2022-08-19T08:03:08;14.27;;;9.77;;
23826;SDS011;12094;50.822;4.376;2022-08-19T08:05:35;16.63;;;9.70;;
23826;SDS011;12094;50.822;4.376;2022-08-19T08:08:21;16.50;;;9.35;;
23826;SDS011;12094;50.822;4.376;2022-08-19T08:11:18;16.27;;;9.43;;
23826;SDS011;12094;50.822;4.376;2022-08-19T08:13:46;15.85;;;8.85;;
23826;SDS011;12094;50.822;4.376;2022-08-19T08:16:38;17.02;;;8.93;;
23826;SDS011;12094;50.822;4.376;2022-08-19T08:19:13;15.20;;;8.23;;
23826;SDS011;12094;50.822;4.376;2022-08-19T08:21:51;16.50;;;8.35;;
23826;SDS011;12094;50.822;4.376;2022-08-19T08:24:21;13.77;;;8.77;;
23826;SDS011;12094;50.822;4.376;2022-08-19T08:26:54;13.38;;;7.90;;
23826;SDS011;12094;50.822;4.376;2022-08-19T08:29:23;13.88;;;8.15;;
23826;SDS011;12094;50.822;4.376;2022-08-19T08:31:51;14.90;;;8.27;;
23826;SDS011;12094;50.822;4.376;2022-08-19T08:34:25;11.10;;;7.45;;
23826;SDS011;12094;50.822;4.376;2022-08-19T08:36:53;17.45;;;8.40;;
23826;SDS011;12094;50.822;4.376;2022-08-19T08:39:21;14.63;;;8.10;;
23826;SDS011;12094;50.822;4.376;2022-08-19T08:41:53;12.13;;;8.40;;
23826;SDS011;12094;50.822;4.376;2022-08-19T08:44:49;12.20;;;8.00;;
23826;SDS011;12094;50.822;4.376;2022-08-19T08:47:35;14.68;;;8.38;;
23826;SDS011;12094;50.822;4.376;2022-08-19T08:50:21;16.20;;;8.60;;
23826;SDS011;12094;50.822;4.376;2022-08-19T08:53:02;13.40;;;7.22;;
23826;SDS011;12094;50.822;4.376;2022-08-19T08:55:31;13.80;;;8.38;;
23826;SDS011;12094;50.822;4.376;2022-08-19T08:58:06;12.45;;;7.70;;
23826;SDS011;12094;50.822;4.376;2022-08-19T09:00:42;17.02;;;7.57;;
23826;SDS011;12094;50.822;4.376;2022-08-19T09:05:53;17.52;;;7.93;;
23826;SDS011;12094;50.822;4.376;2022-08-19T09:08:31;13.48;;;8.27;;
23826;SDS011;12094;50.822;4.376;2022-08-19T09:12:00;15.23;;;7.57;;
23826;SDS011;12094;50.822;4.376;2022-08-19T09:17:17;13.40;;;6.85;;
23826;SDS011;12094;50.822;4.376;2022-08-19T09:22:22;11.70;;;7.05;;
23826;SDS011;12094;50.822;4.376;2022-08-19T09:24:55;10.55;;;6.72;;
23826;SDS011;12094;50.822;4.376;2022-08-19T09:27:22;14.02;;;6.65;;
23826;SDS011;12094;50.822;4.376;2022-08-19T09:30:12;11.32;;;6.40;;
23826;SDS011;12094;50.822;4.376;2022-08-19T09:32:41;12.65;;;6.20;;
23826;SDS011;12094;50.822;4.376;2022-08-19T09:35:11;12.30;;;6.80;;
23826;SDS011;12094;50.822;4.376;2022-08-19T09:37:41;10.93;;;6.82;;
23826;SDS011;12094;50.822;4.376;2022-08-19T09:40:12;11.10;;;7.05;;
23826;SDS011;12094;50.822;4.376;2022-08-19T09:42:43;12.27;;;7.38;;
23826;SDS011;12094;50.822;4.376;2022-08-19T09:45:18;9.98;;;6.93;;
23826;SDS011;12094;50.822;4.376;2022-08-19T09:47:49;11.30;;;7.30;;
23826;SDS011;12094;50.822;4.376;2022-08-19T09:50:22;11.75;;;7.22;;
23826;SDS011;12094;50.822;4.376;2022-08-19T09:52:52;12.50;;;7.15;;
23826;SDS011;12094;50.822;4.376;2022-08-19T09:55:23;8.60;;;6.25;;
23826;SDS011;12094;50.822;4.376;2022-08-19T09:58:00;12.35;;;7.63;;
23826;SDS011;12094;50.822;4.376;2022-08-19T10:00:33;11.85;;;7.30;;
23826;SDS011;12094;50.822;4.376;2022-08-19T10:03:04;8.82;;;6.45;;
23826;SDS011;12094;50.822;4.376;2022-08-19T10:05:32;9.38;;;6.45;;
23826;SDS011;12094;50.822;4.376;2022-08-19T10:08:18;10.32;;;5.90;;
23826;SDS011;12094;50.822;4.376;2022-08-19T10:10:52;9.10;;;6.35;;
23826;SDS011;12094;50.822;4.376;2022-08-19T10:13:23;11.13;;;6.50;;
23826;SDS011;12094;50.822;4.376;2022-08-19T10:15:54;9.70;;;6.90;;
23826;SDS011;12094;50.822;4.376;2022-08-19T10:18:23;10.85;;;6.78;;
23826;SDS011;12094;50.822;4.376;2022-08-19T10:20:52;11.60;;;7.35;;
23826;SDS011;12094;50.822;4.376;2022-08-19T10:23:28;9.60;;;7.10;;
23826;SDS011;12094;50.822;4.376;2022-08-19T10:25:59;11.65;;;7.93;;
23826;SDS011;12094;50.822;4.376;2022-08-19T10:28:26;11.40;;;8.30;;
23826;SDS011;12094;50.822;4.376;2022-08-19T10:30:55;13.40;;;7.85;;
23826;SDS011;12094;50.822;4.376;2022-08-19T10:33:22;11.60;;;8.38;;
23826;SDS011;12094;50.822;4.376;2022-08-19T10:36:14;12.80;;;8.98;;
23826;SDS011;12094;50.822;4.376;2022-08-19T10:38:44;13.27;;;8.13;;
23826;SDS011;12094;50.822;4.376;2022-08-19T10:41:22;14.57;;;9.70;;
23826;SDS011;12094;50.822;4.376;2022-08-19T10:43:57;13.02;;;9.02;;
23826;SDS011;12094;50.822;4.376;2022-08-19T10:46:31;15.88;;;9.65;;
23826;SDS011;12094;50.822;4.376;2022-08-19T10:49:04;13.77;;;9.38;;
23826;SDS011;12094;50.822;4.376;2022-08-19T10:51:32;14.45;;;9.85;;
23826;SDS011;12094;50.822;4.376;2022-08-19T10:54:20;14.63;;;10.48;;
23826;SDS011;12094;50.822;4.376;2022-08-19T10:57:03;14.98;;;11.07;;
23826;SDS011;12094;50.822;4.376;2022-08-19T10:59:32;17.35;;;10.85;;
23826;SDS011;12094;50.822;4.376;2022-08-19T11:02:03;18.35;;;11.15;;
23826;SDS011;12094;50.822;4.376;2022-08-19T11:04:37;14.60;;;9.82;;
23826;SDS011;12094;50.822;4.376;2022-08-19T11:07:08;13.40;;;9.85;;
23826;SDS011;12094;50.822;4.376;2022-08-19T11:09:42;13.05;;;10.07;;
23826;SDS011;12094;50.822;4.376;2022-08-19T11:12:16;15.10;;;9.07;;
23826;SDS011;12094;50.822;4.376;2022-08-19T11:14:45;11.98;;;8.88;;
23826;SDS011;12094;50.822;4.376;2022-08-19T11:17:15;15.67;;;10.67;;
23826;SDS011;12094;50.822;4.376;2022-08-19T11:19:42;13.45;;;10.50;;
23826;SDS011;12094;50.822;4.376;2022-08-19T11:22:13;15.07;;;11.50;;
23826;SDS011;12094;50.822;4.376;2022-08-19T11:24:44;18.83;;;11.60;;
23826;SDS011;12094;50.822;4.376;2022-08-19T11:30:14;20.65;;;12.88;;
23826;SDS011;12094;50.822;4.376;2022-08-19T11:32:43;16.73;;;12.45;;
23826;SDS011;12094;50.822;4.376;2022-08-19T11:35:15;16.98;;;12.15;;
23826;SDS011;12094;50.822;4.376;2022-08-19T11:37:45;16.70;;;12.38;;
23826;SDS011;12094;50.822;4.376;2022-08-19T11:40:14;15.60;;;11.38;;
23826;SDS011;12094;50.822;4.376;2022-08-19T11:42:44;13.30;;;11.05;;
23826;SDS011;12094;50.822;4.376;2022-08-19T11:45:28;14.68;;;11.80;;
23826;SDS011;12094;50.822;4.376;2022-08-19T11:47:59;16.83;;;11.00;;
23826;SDS011;12094;50.822;4.376;2022-08-19T11:50:28;17.17;;;10.38;;
23826;SDS011;12094;50.822;4.376;2022-08-19T11:52:56;14.32;;;10.82;;
23826;SDS011;12094;50.822;4.376;2022-08-19T11:55:26;17.42;;;9.70;;
23826;SDS011;12094;50.822;4.376;2022-08-19T11:57:54;12.65;;;10.27;;
23826;SDS011;12094;50.822;4.376;2022-08-19T12:00:23;15.38;;;9.05;;
23826;SDS011;12094;50.822;4.376;2022-08-19T12:02:51;16.23;;;8.85;;
23826;SDS011;12094;50.822;4.376;2022-08-19T12:05:19;15.20;;;8.43;;
23826;SDS011;12094;50.822;4.376;2022-08-19T12:07:47;10.18;;;6.43;;
23826;SDS011;12094;50.822;4.376;2022-08-19T12:10:15;8.80;;;6.28;;
23826;SDS011;12094;50.822;4.376;2022-08-19T12:15:25;9.40;;;6.35;;
23826;SDS011;12094;50.822;4.376;2022-08-19T12:18:04;13.98;;;6.28;;
23826;SDS011;12094;50.822;4.376;2022-08-19T12:20:37;7.95;;;6.00;;
23826;SDS011;12094;50.822;4.376;2022-08-19T12:23:09;7.82;;;6.40;;
23826;SDS011;12094;50.822;4.376;2022-08-19T12:25:37;11.27;;;5.90;;
23826;SDS011;12094;50.822;4.376;2022-08-19T12:28:21;11.82;;;5.32;;
23826;SDS011;12094;50.822;4.376;2022-08-19T12:30:50;6.50;;;5.03;;
23826;SDS011;12094;50.822;4.376;2022-08-19T12:33:18;7.43;;;5.05;;
23826;SDS011;12094;50.822;4.376;2022-08-19T12:35:53;5.50;;;4.70;;
23826;SDS011;12094;50.822;4.376;2022-08-19T12:38:26;6.38;;;3.88;;
23826;SDS011;12094;50.822;4.376;2022-08-19T12:40:57;7.53;;;3.92;;
23826;SDS011;12094;50.822;4.376;2022-08-19T12:43:27;7.05;;;3.38;;
23826;SDS011;12094;50.822;4.376;2022-08-19T12:45:58;4.10;;;3.33;;
23826;SDS011;12094;50.822;4.376;2022-08-19T12:48:26;9.13;;;2.95;;
23826;SDS011;12094;50.822;4.376;2022-08-19T12:51:00;6.22;;;3.85;;
23826;SDS011;12094;50.822;4.376;2022-08-19T12:53:32;5.95;;;3.40;;
23826;SDS011;12094;50.822;4.376;2022-08-19T12:56:04;5.95;;;3.58;;
23826;SDS011;12094;50.822;4.376;2022-08-19T13:01:17;5.38;;;3.17;;
23826;SDS011;12094;50.822;4.376;2022-08-19T13:03:49;4.88;;;2.83;;
23826;SDS011;12094;50.822;4.376;2022-08-19T13:06:23;7.03;;;3.30;;
23826;SDS011;12094;50.822;4.376;2022-08-19T13:08:51;6.53;;;2.90;;
23826;SDS011;12094;50.822;4.376;2022-08-19T13:11:24;6.57;;;3.00;;
23826;SDS011;12094;50.822;4.376;2022-08-19T13:13:52;5.20;;;2.67;;
23826;SDS011;12094;50.822;4.376;2022-08-19T13:16:22;4.57;;;2.55;;
23826;SDS011;12094;50.822;4.376;2022-08-19T13:18:50;4.13;;;2.47;;
23826;SDS011;12094;50.822;4.376;2022-08-19T13:21:20;6.07;;;2.40;;
23826;SDS011;12094;50.822;4.376;2022-08-19T13:23:50;3.58;;;2.33;;
23826;SDS011;12094;50.822;4.376;2022-08-19T13:26:21;4.38;;;2.60;;
23826;SDS011;12094;50.822;4.376;2022-08-19T13:28:49;4.72;;;2.50;;
23826;SDS011;12094;50.822;4.376;2022-08-19T13:31:39;8.13;;;2.75;;
23826;SDS011;12094;50.822;4.376;2022-08-19T13:34:31;5.72;;;2.65;;
23826;SDS011;12094;50.822;4.376;2022-08-19T13:37:01;4.43;;;2.20;;
23826;SDS011;12094;50.822;4.376;2022-08-19T13:39:32;4.30;;;2.10;;
23826;SDS011;12094;50.822;4.376;2022-08-19T13:42:02;9.05;;;2.22;;
23826;SDS011;12094;50.822;4.376;2022-08-19T13:44:33;7.07;;;2.67;;
23826;SDS011;12094;50.822;4.376;2022-08-19T13:47:01;4.70;;;2.25;;
23826;SDS011;12094;50.822;4.376;2022-08-19T13:49:35;4.57;;;2.53;;
23826;SDS011;12094;50.822;4.376;2022-08-19T13:52:03;4.65;;;2.60;;
23826;SDS011;12094;50.822;4.376;2022-08-19T13:54:37;3.88;;;2.28;;
23826;SDS011;12094;50.822;4.376;2022-08-19T13:57:04;8.38;;;2.50;;
23826;SDS011;12094;50.822;4.376;2022-08-19T13:59:34;5.78;;;2.28;;
23826;SDS011;12094;50.822;4.376;2022-08-19T14:02:02;6.85;;;1.98;;
23826;SDS011;12094;50.822;4.376;2022-08-19T14:04:33;2.95;;;2.10;;
23826;SDS011;12094;50.822;4.376;2022-08-19T14:07:04;6.72;;;1.83;;
23826;SDS011;12094;50.822;4.376;2022-08-19T14:09:30;2.58;;;1.38;;
23826;SDS011;12094;50.822;4.376;2022-08-19T14:11:59;4.40;;;1.60;;
23826;SDS011;12094;50.822;4.376;2022-08-19T14:14:27;3.28;;;1.45;;
23826;SDS011;12094;50.822;4.376;2022-08-19T14:16:56;3.42;;;1.90;;
23826;SDS011;12094;50.822;4.376;2022-08-19T14:19:23;6.20;;;2.03;;
23826;SDS011;12094;50.822;4.376;2022-08-19T14:21:56;7.53;;;2.35;;
23826;SDS011;12094;50.822;4.376;2022-08-19T14:24:23;4.68;;;2.33;;
23826;SDS011;12094;50.822;4.376;2022-08-19T14:26:51;3.75;;;2.17;;
23826;SDS011;12094;50.822;4.376;2022-08-19T14:29:20;7.07;;;2.10;;
23826;SDS011;12094;50.822;4.376;2022-08-19T14:31:47;3.47;;;1.88;;
23826;SDS011;12094;50.822;4.376;2022-08-19T14:34:15;4.50;;;1.83;;
23826;SDS011;12094;50.822;4.376;2022-08-19T14:36:43;1.88;;;1.50;;
23826;SDS011;12094;50.822;4.376;2022-08-19T14:39:14;7.28;;;1.75;;
23826;SDS011;12094;50.822;4.376;2022-08-19T14:41:42;3.65;;;1.90;;
23826;SDS011;12094;50.822;4.376;2022-08-19T14:44:13;2.53;;;1.45;;
23826;SDS011;12094;50.822;4.376;2022-08-19T14:46:42;3.97;;;1.90;;
23826;SDS011;12094;50.822;4.376;2022-08-19T14:49:16;1.67;;;1.55;;
23826;SDS011;12094;50.822;4.376;2022-08-19T14:51:45;2.05;;;1.85;;
23826;SDS011;12094;50.822;4.376;2022-08-19T14:54:13;3.95;;;1.90;;
23826;SDS011;12094;50.822;4.376;2022-08-19T14:56:41;4.25;;;2.17;;
23826;SDS011;12094;50.822;4.376;2022-08-19T14:59:09;4.05;;;1.95;;
23826;SDS011;12094;50.822;4.376;2022-08-19T15:01:37;4.93;;;1.90;;
23826;SDS011;12094;50.822;4.376;2022-08-19T15:04:04;5.03;;;1.83;;
23826;SDS011;12094;50.822;4.376;2022-08-19T15:06:32;5.13;;;2.00;;
23826;SDS011;12094;50.822;4.376;2022-08-19T15:09:01;4.80;;;1.50;;
23826;SDS011;12094;50.822;4.376;2022-08-19T15:11:31;2.50;;;1.63;;
23826;SDS011;12094;50.822;4.376;2022-08-19T15:14:00;2.97;;;1.70;;
23826;SDS011;12094;50.822;4.376;2022-08-19T15:16:28;4.43;;;1.60;;
23826;SDS011;12094;50.822;4.376;2022-08-19T15:18:56;3.05;;;1.67;;
23826;SDS011;12094;50.822;4.376;2022-08-19T15:21:26;2.90;;;1.50;;
23826;SDS011;12094;50.822;4.376;2022-08-19T15:23:56;5.35;;;1.80;;
23826;SDS011;12094;50.822;4.376;2022-08-19T15:26:24;2.35;;;1.67;;
23826;SDS011;12094;50.822;4.376;2022-08-19T15:28:54;3.60;;;1.58;;